createdAt,value
2022-08-14T18:31:22.886Z,7.90
2022-08-14T18:34:06.707Z,9.90
2022-08-14T18:36:54.390Z,8.00
2022-08-14T18:39:34.635Z,7.30
2022-08-14T18:42:24.355Z,10.10
2022-08-14T18:45:15.590Z,13.80
2022-08-14T18:48:16.036Z,15.10
2022-08-14T18:50:52.631Z,13.60
2022-08-14T18:53:24.959Z,12.80
2022-08-14T18:56:00.005Z,13.80
2022-08-14T18:58:57.083Z,27.00
2022-08-14T19:01:29.579Z,41.90
2022-08-14T19:04:01.542Z,8.60
2022-08-14T19:06:56.009Z,7.20
2022-08-14T19:10:06.135Z,5.40
2022-08-14T19:12:53.256Z,5.50
2022-08-14T19:15:25.736Z,5.80
2022-08-14T19:18:15.134Z,6.20
2022-08-14T19:20:53.640Z,6.20
2022-08-14T19:23:42.116Z,5.70
2022-08-14T19:26:33.920Z,5.30
2022-08-14T19:29:38.250Z,6.30
2022-08-14T19:32:39.489Z,6.20
2022-08-14T19:38:47.894Z,7.00
2022-08-14T19:41:19.978Z,7.10
2022-08-14T19:43:57.026Z,8.10
2022-08-14T19:46:39.114Z,7.50
2022-08-14T19:49:21.586Z,5.70
2022-08-14T19:52:21.003Z,5.40
2022-08-14T19:54:51.382Z,9.70
2022-08-14T19:57:28.957Z,7.30
2022-08-14T20:00:28.515Z,7.40
2022-08-14T20:03:11.375Z,6.60
2022-08-14T20:05:46.019Z,6.50
2022-08-14T20:09:06.136Z,6.60
2022-08-14T20:12:00.141Z,6.70
2022-08-14T20:14:41.599Z,7.20
2022-08-14T20:17:25.584Z,7.10
2022-08-14T20:19:55.283Z,5.90
2022-08-14T20:22:38.508Z,6.00
2022-08-14T20:25:21.691Z,6.20
2022-08-14T20:27:59.517Z,5.50
2022-08-14T20:30:34.557Z,5.60
2022-08-14T20:33:11.248Z,6.00
2022-08-14T20:35:43.481Z,5.80
2022-08-14T20:38:32.542Z,6.60
2022-08-14T20:41:10.600Z,5.50
2022-08-14T20:44:00.896Z,5.90
2022-08-14T20:46:42.283Z,6.10
2022-08-14T20:49:18.535Z,6.00
2022-08-14T20:51:59.402Z,5.60
2022-08-14T20:54:37.006Z,6.90
2022-08-14T20:57:21.005Z,6.80
2022-08-14T20:59:57.354Z,7.10
2022-08-14T21:02:38.451Z,7.80
2022-08-14T21:05:33.740Z,6.20
2022-08-14T21:08:09.505Z,6.10
2022-08-14T21:10:49.372Z,6.40
2022-08-14T21:14:09.307Z,6.50
2022-08-14T21:18:59.905Z,7.00
2022-08-14T21:21:40.879Z,7.80
2022-08-14T21:24:38.670Z,7.50
2022-08-14T21:27:13.257Z,7.70
2022-08-14T21:29:55.371Z,6.30
2022-08-14T21:32:34.836Z,6.60
2022-08-14T21:35:08.761Z,8.10
2022-08-14T21:37:43.584Z,7.40
2022-08-14T21:40:41.195Z,7.00
2022-08-14T21:43:18.553Z,6.30
2022-08-14T21:45:56.181Z,6.50
2022-08-14T21:48:30.110Z,6.50
2022-08-14T21:51:54.461Z,8.10
2022-08-14T21:53:58.609Z,6.50
2022-08-14T21:56:39.468Z,6.90
2022-08-14T21:59:17.927Z,24.30
2022-08-14T22:02:00.362Z,37.00
2022-08-14T22:04:40.615Z,56.70
2022-08-14T22:07:16.786Z,38.20
2022-08-14T22:09:55.193Z,35.00
2022-08-14T22:12:45.421Z,7.50
2022-08-14T22:15:17.074Z,6.60
2022-08-14T22:17:54.573Z,11.60
2022-08-14T22:20:27.823Z,8.10
2022-08-14T22:23:03.030Z,7.10
2022-08-14T22:25:40.859Z,7.90
2022-08-14T22:28:19.967Z,8.00
2022-08-14T22:30:54.792Z,12.50
2022-08-14T22:33:31.081Z,16.60
2022-08-14T22:36:25.189Z,11.40
2022-08-14T22:38:55.871Z,8.50
2022-08-14T22:41:32.559Z,8.90
2022-08-14T22:44:29.311Z,7.80
2022-08-14T22:47:01.470Z,8.00
2022-08-14T22:50:31.115Z,8.30
2022-08-14T22:55:06.006Z,8.50
2022-08-14T22:57:43.317Z,8.80
2022-08-14T23:00:31.256Z,9.10
2022-08-14T23:03:17.235Z,8.20
2022-08-14T23:05:52.737Z,9.10
2022-08-14T23:08:58.446Z,8.30
2022-08-14T23:11:15.415Z,8.70
2022-08-14T23:13:46.153Z,7.90
2022-08-14T23:16:19.852Z,8.40
2022-08-14T23:18:53.983Z,9.20
2022-08-14T23:21:25.246Z,9.50
2022-08-14T23:23:58.393Z,8.90
2022-08-14T23:26:48.842Z,9.60
2022-08-14T23:29:18.442Z,9.80
2022-08-14T23:31:50.627Z,8.90
2022-08-14T23:34:21.611Z,9.80
2022-08-14T23:36:56.023Z,8.20
2022-08-14T23:39:32.305Z,9.10
2022-08-14T23:42:07.627Z,9.50
2022-08-14T23:44:39.010Z,10.30
2022-08-14T23:47:25.658Z,9.50
2022-08-14T23:50:03.863Z,10.60
2022-08-14T23:52:56.013Z,9.70
2022-08-14T23:55:30.800Z,9.60
2022-08-14T23:58:01.066Z,9.20
